Nett River, Minnesota
Current Conditions -  °F | °C
As of 3:11 PM on Saturday 22 Nov 2014 (Local Time) from KVWU Reporting Station
Clear Clear  
Wind Chill: 41°   Ceiling: Unl
Heat Index: 41°   Visibility: 10mi
Dew Point: 32°   Wind: 0mph
Humidity: 70%   Direction: NA
Pressure: 29.53"   Gusts: NA
Location:  48.1809°N, 93.8949°W
Report Text: KVWU 222111Z AUTO 00000KT 10SM CLR 05/00 A2953 RMK AO2
Loading
Personal Weather Stations






























Interactive Weather Map New forecast layout! Learn more

10-Day Weather Forecast

Advertisements
Track Severe Weather on mobile